createdAt,value
2023-03-15T08:53:26.355Z,13.40
2023-03-15T08:55:54.727Z,13.30
2023-03-15T08:58:22.993Z,12.10
2023-03-15T09:00:52.077Z,12.20
2023-03-15T09:03:22.548Z,12.40
2023-03-15T09:05:51.164Z,12.70
2023-03-15T09:08:21.552Z,12.60
2023-03-15T09:10:49.831Z,13.00
2023-03-15T09:13:18.082Z,12.50
2023-03-15T09:15:46.382Z,12.10
2023-03-15T09:18:16.442Z,12.00
2023-03-15T09:20:45.013Z,10.90
2023-03-15T09:23:13.705Z,11.30
2023-03-15T09:25:43.681Z,12.00
2023-03-15T09:28:13.008Z,12.20
2023-03-15T09:30:43.098Z,11.70
2023-03-15T09:33:14.655Z,11.10
2023-03-15T09:35:43.478Z,11.60
2023-03-15T09:38:12.077Z,12.90
2023-03-15T09:40:46.166Z,13.60
2023-03-15T09:43:53.832Z,13.00
2023-03-15T09:46:31.026Z,13.00
2023-03-15T09:49:08.574Z,13.10
2023-03-15T09:51:44.036Z,12.90
2023-03-15T09:54:19.198Z,13.10
2023-03-15T09:56:57.878Z,12.70
2023-03-15T09:59:31.875Z,12.00
2023-03-15T10:02:03.187Z,12.10
2023-03-15T10:04:37.318Z,12.90
2023-03-15T10:07:10.598Z,12.30
2023-03-15T10:09:39.477Z,11.70
2023-03-15T10:12:14.276Z,11.80
2023-03-15T10:15:23.067Z,12.50
2023-03-15T10:18:28.000Z,13.00
2023-03-15T10:21:07.746Z,12.70
2023-03-15T10:23:47.498Z,12.10
2023-03-15T10:26:20.097Z,12.90
2023-03-15T10:28:51.168Z,12.70
2023-03-15T10:31:36.811Z,12.70
2023-03-15T10:34:11.715Z,12.60
2023-03-15T10:36:47.043Z,12.30
2023-03-15T10:39:15.350Z,12.70
2023-03-15T10:41:47.797Z,13.30
2023-03-15T10:44:20.636Z,13.30
2023-03-15T10:47:19.986Z,11.90
2023-03-15T10:49:51.957Z,11.20
2023-03-15T10:52:39.913Z,10.70
2023-03-15T10:55:13.691Z,12.00
2023-03-15T10:57:53.101Z,12.50
2023-03-15T11:00:31.187Z,11.30
2023-03-15T11:03:08.511Z,10.90
2023-03-15T11:05:43.634Z,11.30
2023-03-15T11:08:15.643Z,12.10
2023-03-15T11:10:45.459Z,12.10
2023-03-15T11:13:21.821Z,12.10
2023-03-15T11:16:04.092Z,12.30
2023-03-15T11:18:37.827Z,12.40
2023-03-15T11:21:09.977Z,12.60
2023-03-15T11:23:41.305Z,13.00
2023-03-15T11:26:31.445Z,12.90
2023-03-15T11:29:02.558Z,12.90
2023-03-15T11:31:32.512Z,12.50
2023-03-15T11:34:07.464Z,11.90
2023-03-15T11:36:41.189Z,12.10
2023-03-15T11:39:14.899Z,12.20
2023-03-15T11:41:49.410Z,12.70
2023-03-15T11:44:29.744Z,12.30
2023-03-15T11:47:05.642Z,12.10
2023-03-15T11:49:41.958Z,12.50
2023-03-15T11:52:11.455Z,12.80
2023-03-15T11:54:40.067Z,12.50
2023-03-15T11:57:44.339Z,11.20
2023-03-15T12:01:02.028Z,11.70
2023-03-15T12:03:37.953Z,10.90
2023-03-15T12:06:38.986Z,10.90
2023-03-15T12:09:52.550Z,10.60
2023-03-15T12:12:39.333Z,11.50
2023-03-15T12:15:32.027Z,12.70
2023-03-15T12:18:06.416Z,11.90
2023-03-15T12:20:39.618Z,11.90
2023-03-15T12:23:30.888Z,11.50
2023-03-15T12:26:06.420Z,12.10
2023-03-15T12:28:38.366Z,11.80
2023-03-15T12:31:13.124Z,10.80
2023-03-15T12:33:50.662Z,10.70
2023-03-15T12:36:33.211Z,11.00
2023-03-15T12:39:20.855Z,11.40
2023-03-15T12:41:51.495Z,11.30
2023-03-15T12:44:28.136Z,11.60
2023-03-15T12:46:59.673Z,11.00
2023-03-15T12:49:35.765Z,10.90
2023-03-15T12:52:14.608Z,11.40
2023-03-15T12:54:47.858Z,10.90
2023-03-15T12:57:20.588Z,10.90
2023-03-15T12:59:55.605Z,11.80
2023-03-15T13:02:42.637Z,11.90
2023-03-15T13:05:24.392Z,12.10
2023-03-15T13:08:07.361Z,11.70
2023-03-15T13:10:59.804Z,11.10
2023-03-15T13:21:37.284Z,12.20
2023-03-15T13:24:20.197Z,12.90
2023-03-15T13:26:58.233Z,12.80
2023-03-15T13:29:30.834Z,12.90
2023-03-15T13:32:08.041Z,12.00
2023-03-15T13:34:36.796Z,12.50
2023-03-15T13:37:05.152Z,12.20
2023-03-15T13:39:36.190Z,12.10
2023-03-15T13:42:08.058Z,12.00
2023-03-15T13:44:36.721Z,12.50
2023-03-15T13:47:05.169Z,12.00
2023-03-15T13:49:35.689Z,12.10
2023-03-15T13:59:49.275Z,11.90
2023-03-15T14:02:22.303Z,12.80
2023-03-15T14:04:57.366Z,12.60
2023-03-15T14:07:36.093Z,12.70
2023-03-15T14:10:32.059Z,13.00
2023-03-15T14:13:17.835Z,12.70
2023-03-15T14:15:48.847Z,13.10
2023-03-15T14:18:23.033Z,12.10
2023-03-15T14:20:59.982Z,11.60
2023-03-15T14:23:30.714Z,12.30
2023-03-15T14:26:14.956Z,12.60
2023-03-15T14:28:48.457Z,12.90
2023-03-15T14:31:24.801Z,12.70
2023-03-15T14:33:56.481Z,12.80
2023-03-15T14:36:31.567Z,12.20
2023-03-15T14:39:00.657Z,12.40
2023-03-15T14:41:34.211Z,12.70
2023-03-15T14:49:01.234Z,12.40
2023-03-15T14:54:01.762Z,11.20
2023-03-15T14:56:30.031Z,10.90
2023-03-15T14:59:00.856Z,11.00
2023-03-15T15:01:30.127Z,11.20
2023-03-15T15:04:02.967Z,10.90
2023-03-15T15:06:33.011Z,10.60
2023-03-15T15:11:32.293Z,11.50
2023-03-15T15:14:01.979Z,12.00
2023-03-15T15:34:03.330Z,12.40
2023-03-15T15:36:34.465Z,11.80
2023-03-15T15:39:06.392Z,11.50
2023-03-15T16:04:07.536Z,12.00
2023-03-15T16:06:37.539Z,11.10
2023-03-15T16:09:08.390Z,11.40
2023-03-15T16:11:36.731Z,11.50
2023-03-15T16:14:06.480Z,11.60
2023-03-15T16:16:34.736Z,10.90
2023-03-15T16:19:03.286Z,10.70
2023-03-15T16:21:35.733Z,11.20
2023-03-15T16:24:10.041Z,11.50
2023-03-15T16:26:40.685Z,11.30
2023-03-15T16:29:18.579Z,11.70
2023-03-15T16:31:47.423Z,11.60
2023-03-15T16:34:18.123Z,11.20
2023-03-15T16:36:49.805Z,11.00
2023-03-15T16:39:18.896Z,10.90
2023-03-15T16:41:47.168Z,11.50
2023-03-15T16:44:19.478Z,11.70
2023-03-15T16:46:48.936Z,11.00
2023-03-15T16:49:17.301Z,10.90
2023-03-15T16:51:50.235Z,10.40
2023-03-15T16:54:34.262Z,11.50
2023-03-15T16:57:22.665Z,11.60
2023-03-15T16:59:52.638Z,11.30
2023-03-15T17:02:23.964Z,11.30
2023-03-15T17:07:28.047Z,11.80
2023-03-15T17:09:56.729Z,12.10
2023-03-15T17:12:28.433Z,12.30
2023-03-15T17:15:00.473Z,12.00
2023-03-15T20:27:48.945Z,12.20
2023-03-15T20:30:18.606Z,11.40
2023-03-15T20:32:46.998Z,11.50
2023-03-15T20:35:15.309Z,11.00
2023-03-15T20:37:43.695Z,10.60
2023-03-15T20:40:17.295Z,11.10
2023-03-15T20:42:45.712Z,11.00
2023-03-15T20:45:14.961Z,11.00
2023-03-15T20:47:43.548Z,11.00
2023-03-15T20:50:14.207Z,11.30
2023-03-15T20:52:43.550Z,11.20
2023-03-15T20:55:15.217Z,11.20
2023-03-15T20:57:43.544Z,10.70
2023-03-15T21:00:18.220Z,10.90
2023-03-15T21:02:47.852Z,10.80
2023-03-15T21:05:17.264Z,10.30
2023-03-15T21:07:46.241Z,10.70
2023-03-15T21:10:16.073Z,10.90
2023-03-15T21:12:45.053Z,10.90
2023-03-15T21:15:17.576Z,10.70
2023-03-15T21:17:48.769Z,11.10
2023-03-15T21:20:17.514Z,10.90
2023-03-15T21:22:45.820Z,11.20
2023-03-15T21:25:16.044Z,10.80
2023-03-15T21:27:44.431Z,10.40
2023-03-15T21:30:14.935Z,10.50
2023-03-15T21:32:43.626Z,11.00
2023-03-15T21:35:12.551Z,11.00
2023-03-15T21:37:41.225Z,11.10
2023-03-15T21:40:11.796Z,11.20
2023-03-15T21:42:42.709Z,11.10
2023-03-15T21:45:12.337Z,11.10
2023-03-15T21:47:40.712Z,10.90
2023-03-15T21:50:11.724Z,10.90
2023-03-15T21:52:40.255Z,11.10
2023-03-15T21:55:10.359Z,10.90
2023-03-15T21:57:40.078Z,10.90
2023-03-15T22:00:11.987Z,10.90
2023-03-15T22:02:40.391Z,11.00
2023-03-15T22:05:09.440Z,10.90
2023-03-15T22:07:37.730Z,10.50
2023-03-15T22:10:06.918Z,10.80
2023-03-15T22:12:35.218Z,11.00
2023-03-15T22:15:06.257Z,11.00
2023-03-15T22:17:34.937Z,10.50
2023-03-15T22:20:05.265Z,10.30
2023-03-15T22:22:33.558Z,10.60
2023-03-15T22:25:01.807Z,10.80
2023-03-15T22:27:30.095Z,10.90
2023-03-15T22:29:58.366Z,10.70
2023-03-15T22:32:28.161Z,10.20
2023-03-15T22:34:56.455Z,10.40
2023-03-15T22:37:25.116Z,9.30
2023-03-15T22:39:53.522Z,9.40
2023-03-15T22:42:21.862Z,9.60
2023-03-15T22:44:50.353Z,9.40
2023-03-15T22:47:18.659Z,9.00
2023-03-15T22:49:48.300Z,9.10
2023-03-15T22:52:16.695Z,9.50
2023-03-15T22:54:45.045Z,10.10
2023-03-15T22:57:13.404Z,10.00
2023-03-15T22:59:41.687Z,10.00
2023-03-15T23:02:12.080Z,10.00
2023-03-15T23:04:41.127Z,9.50
2023-03-15T23:07:11.078Z,9.30
2023-03-15T23:09:39.398Z,9.70
2023-03-15T23:12:08.526Z,9.70
2023-03-15T23:14:37.487Z,9.10
2023-03-15T23:17:05.836Z,8.80
2023-03-15T23:19:35.120Z,8.60
2023-03-15T23:22:05.428Z,9.30
2023-03-15T23:24:35.167Z,9.60
2023-03-15T23:27:05.025Z,9.80
2023-03-15T23:29:40.689Z,8.60
2023-03-15T23:32:15.594Z,8.90
2023-03-15T23:34:43.892Z,9.20
2023-03-15T23:37:15.085Z,9.50
2023-03-15T23:39:45.173Z,9.60
2023-03-15T23:42:14.439Z,9.60
2023-03-15T23:44:43.412Z,9.80
2023-03-15T23:47:12.391Z,9.90
2023-03-15T23:49:40.856Z,10.00
2023-03-15T23:52:09.525Z,9.90
2023-03-15T23:54:41.346Z,9.70
2023-03-15T23:57:14.156Z,9.20
2023-03-15T23:59:43.112Z,9.30
